createdAt,value
2023-05-08T00:00:57.549Z,4.60
2023-05-08T00:05:52.079Z,4.18
2023-05-08T00:08:19.286Z,4.72
2023-05-08T00:10:46.480Z,4.30
2023-05-08T00:13:15.013Z,4.45
2023-05-08T00:15:42.218Z,4.65
2023-05-08T00:18:09.520Z,4.03
2023-05-08T00:20:36.744Z,4.22
2023-05-08T00:23:04.004Z,4.07
2023-05-08T00:25:31.878Z,4.20
2023-05-08T00:27:59.175Z,4.35
2023-05-08T00:30:27.704Z,4.10
2023-05-08T00:32:55.007Z,4.25
2023-05-08T00:35:22.498Z,4.60
2023-05-08T00:37:49.697Z,4.30
2023-05-08T00:40:16.961Z,4.05
2023-05-08T00:42:44.181Z,4.20
2023-05-08T00:45:12.599Z,4.00
2023-05-08T00:47:41.260Z,4.10
2023-05-08T00:50:09.015Z,4.10
2023-05-08T00:52:36.292Z,5.90
2023-05-08T00:55:03.675Z,4.18
2023-05-08T00:57:31.339Z,4.30
2023-05-08T00:59:59.059Z,4.05
2023-05-08T01:02:26.727Z,4.07
2023-05-08T01:04:55.395Z,4.00
2023-05-08T01:07:22.724Z,4.13
2023-05-08T01:09:49.946Z,3.50
2023-05-08T01:12:18.649Z,3.97
2023-05-08T01:14:50.584Z,4.43
2023-05-08T01:17:18.647Z,4.50
2023-05-08T01:19:56.469Z,3.92
2023-05-08T01:22:29.254Z,3.80
2023-05-08T01:25:08.582Z,4.40
2023-05-08T01:27:45.967Z,3.88
2023-05-08T01:30:17.467Z,3.95
2023-05-08T01:32:47.517Z,3.83
2023-05-08T01:37:43.057Z,4.47
2023-05-08T01:40:12.144Z,4.80
2023-05-08T01:42:45.209Z,4.82
2023-05-08T01:45:13.805Z,4.32
2023-05-08T01:47:41.064Z,4.53
2023-05-08T01:50:11.413Z,4.45
2023-05-08T01:52:43.815Z,4.07
2023-05-08T01:55:11.706Z,4.07
2023-05-08T01:57:39.637Z,4.00
2023-05-08T02:00:07.880Z,4.35
2023-05-08T02:02:35.303Z,4.30
2023-05-08T02:05:02.820Z,4.75
2023-05-08T02:07:31.407Z,4.28
2023-05-08T02:09:58.601Z,4.55
2023-05-08T02:12:25.820Z,4.22
2023-05-08T02:14:53.396Z,4.22
2023-05-08T02:17:20.596Z,4.60
2023-05-08T02:19:47.784Z,4.43
2023-05-08T02:22:15.018Z,4.00
2023-05-08T02:24:43.552Z,4.55
2023-05-08T02:27:10.928Z,3.97
2023-05-08T02:29:38.282Z,4.35
2023-05-08T02:32:06.239Z,4.15
2023-05-08T02:34:33.491Z,4.32
2023-05-08T02:37:00.731Z,4.03
2023-05-08T02:39:27.956Z,4.70
2023-05-08T02:41:56.469Z,4.50
2023-05-08T02:44:23.895Z,4.13
2023-05-08T02:46:53.896Z,4.00
2023-05-08T02:49:24.784Z,5.70
2023-05-08T02:51:54.601Z,4.68
2023-05-08T02:54:22.760Z,4.32
2023-05-08T02:56:51.442Z,6.30
2023-05-08T02:59:21.498Z,3.95
2023-05-08T03:01:50.344Z,3.97
2023-05-08T03:04:20.514Z,4.70
2023-05-08T03:09:16.403Z,4.38
2023-05-08T03:11:43.604Z,4.38
2023-05-08T03:14:11.164Z,4.25
2023-05-08T03:16:40.551Z,4.25
2023-05-08T03:19:09.417Z,4.00
2023-05-08T03:21:37.205Z,4.40
2023-05-08T03:24:04.533Z,4.40
2023-05-08T03:26:31.810Z,4.18
2023-05-08T03:28:59.041Z,3.83
2023-05-08T03:31:26.307Z,4.35
2023-05-08T03:33:54.989Z,3.95
2023-05-08T03:36:22.393Z,4.82
2023-05-08T03:38:49.588Z,4.50
2023-05-08T03:41:16.796Z,4.45
2023-05-08T03:43:43.996Z,4.45
2023-05-08T03:46:11.228Z,4.65
2023-05-08T03:48:38.458Z,4.10
2023-05-08T03:51:07.200Z,4.40
2023-05-08T03:53:34.390Z,4.30
2023-05-08T03:56:01.620Z,4.97
2023-05-08T03:58:29.708Z,4.85
2023-05-08T04:01:00.204Z,4.30
2023-05-08T04:03:28.642Z,4.43
2023-05-08T04:05:58.696Z,4.10
2023-05-08T04:08:28.425Z,4.90
2023-05-08T04:10:57.023Z,4.60
2023-05-08T04:13:26.530Z,4.43
2023-05-08T04:15:54.864Z,5.40
2023-05-08T04:18:23.353Z,4.57
2023-05-08T04:20:50.681Z,4.30
2023-05-08T04:23:18.375Z,4.38
2023-05-08T04:25:46.879Z,4.32
2023-05-08T04:28:14.077Z,4.40
2023-05-08T04:30:41.263Z,4.93
2023-05-08T04:33:08.592Z,4.25
2023-05-08T04:35:35.814Z,4.93
2023-05-08T04:38:03.081Z,4.93
2023-05-08T04:40:30.297Z,4.57
2023-05-08T04:42:58.833Z,4.30
2023-05-08T04:45:26.049Z,4.90
2023-05-08T04:47:53.302Z,4.60
2023-05-08T04:50:20.815Z,4.75
2023-05-08T04:52:48.026Z,5.47
2023-05-08T04:55:15.432Z,4.70
2023-05-08T04:57:42.704Z,4.95
2023-05-08T05:00:12.099Z,4.20
2023-05-08T05:02:39.322Z,4.68
2023-05-08T05:05:07.023Z,4.40
2023-05-08T05:07:34.196Z,5.65
2023-05-08T05:10:01.457Z,4.38
2023-05-08T05:12:28.663Z,5.20
2023-05-08T05:14:55.865Z,4.75
2023-05-08T05:17:24.453Z,4.85
2023-05-08T05:19:53.391Z,4.78
2023-05-08T05:22:20.769Z,5.40
2023-05-08T05:24:48.047Z,4.78
2023-05-08T05:27:15.782Z,6.40
2023-05-08T05:29:42.979Z,9.65
2023-05-08T05:32:11.519Z,132.48
2023-05-08T05:34:40.027Z,43.63
2023-05-08T05:37:07.819Z,29.05
2023-05-08T05:39:35.791Z,20.25
2023-05-08T05:42:03.143Z,16.48
2023-05-08T05:44:30.325Z,19.77
2023-05-08T05:46:57.591Z,31.00
2023-05-08T05:49:24.780Z,31.13
2023-05-08T05:51:53.281Z,41.15
2023-05-08T05:54:20.464Z,34.95
2023-05-08T05:56:48.236Z,46.08
2023-05-08T05:59:15.426Z,19.45
2023-05-08T06:01:42.697Z,14.20
2023-05-08T06:04:10.020Z,17.85
2023-05-08T06:06:37.268Z,11.48
2023-05-08T06:09:06.946Z,10.70
2023-05-08T06:11:34.356Z,18.80
2023-05-08T06:14:01.682Z,16.38
2023-05-08T06:16:30.377Z,16.88
2023-05-08T06:18:57.630Z,15.60
2023-05-08T06:21:24.822Z,25.45
2023-05-08T06:23:52.125Z,22.55
2023-05-08T06:26:23.238Z,20.60
2023-05-08T06:28:50.742Z,29.20
2023-05-08T06:31:18.928Z,19.35
2023-05-08T06:33:46.214Z,13.05
2023-05-08T06:36:13.779Z,15.93
2023-05-08T06:38:40.984Z,15.10
2023-05-08T06:41:08.214Z,10.48
2023-05-08T06:43:36.721Z,11.95
2023-05-08T06:46:04.667Z,9.95
2023-05-08T06:48:31.922Z,11.75
2023-05-08T06:50:59.321Z,15.80
2023-05-08T06:53:26.604Z,20.58
2023-05-08T06:55:53.845Z,40.50
2023-05-08T06:58:21.055Z,82.28
2023-05-08T07:00:49.544Z,33.88
2023-05-08T07:03:16.791Z,40.85
2023-05-08T07:05:44.006Z,31.10
2023-05-08T07:08:11.178Z,31.10
2023-05-08T07:10:38.400Z,24.90
2023-05-08T07:13:05.642Z,18.45
2023-05-08T07:15:32.901Z,16.73
2023-05-08T07:18:01.547Z,17.98
2023-05-08T07:20:28.885Z,16.70
2023-05-08T07:22:56.131Z,13.75
2023-05-08T07:25:23.664Z,12.15
2023-05-08T07:27:50.902Z,9.02
2023-05-08T07:30:18.218Z,12.10
2023-05-08T07:32:45.522Z,12.25
2023-05-08T07:35:15.376Z,9.30
2023-05-08T07:40:10.290Z,8.35
2023-05-08T07:42:41.371Z,8.27
2023-05-08T07:45:09.270Z,8.65
2023-05-08T07:47:36.782Z,7.82
2023-05-08T07:50:04.036Z,7.97
2023-05-08T07:52:32.659Z,8.35
2023-05-08T07:54:59.852Z,14.18
2023-05-08T07:57:27.127Z,13.15
2023-05-08T07:59:54.310Z,8.50
2023-05-08T08:02:21.647Z,18.92
2023-05-08T08:04:49.398Z,11.02
2023-05-08T08:07:16.628Z,28.00
2023-05-08T08:09:45.233Z,10.25
2023-05-08T08:12:12.435Z,8.88
2023-05-08T08:14:39.646Z,10.80
2023-05-08T08:17:06.918Z,8.00
2023-05-08T08:19:34.117Z,15.48
2023-05-08T08:22:01.301Z,8.98
2023-05-08T08:24:29.187Z,8.57
2023-05-08T08:26:57.704Z,9.98
2023-05-08T08:29:25.025Z,13.00
2023-05-08T08:31:52.253Z,12.75
2023-05-08T08:34:19.797Z,8.75
2023-05-08T08:36:47.163Z,7.30
2023-05-08T08:39:15.437Z,9.18
2023-05-08T08:41:42.702Z,10.93
2023-05-08T08:44:11.231Z,7.57
2023-05-08T08:46:39.596Z,8.50
2023-05-08T08:49:08.102Z,7.85
2023-05-08T08:51:36.891Z,7.35
2023-05-08T08:54:05.067Z,8.13
2023-05-08T08:56:32.553Z,8.30
2023-05-08T08:59:00.052Z,8.10
2023-05-08T09:01:29.141Z,7.25
2023-05-08T09:03:57.867Z,7.63
2023-05-08T09:06:25.435Z,7.82
2023-05-08T09:08:53.069Z,7.57
2023-05-08T09:11:21.078Z,6.75
2023-05-08T09:13:48.284Z,6.85
2023-05-08T09:16:15.533Z,7.72
2023-05-08T09:18:44.143Z,7.13
2023-05-08T09:21:11.457Z,10.52
2023-05-08T09:23:38.666Z,9.93
2023-05-08T09:26:05.891Z,8.52
2023-05-08T09:28:33.122Z,8.43
2023-05-08T09:31:01.525Z,8.65
2023-05-08T09:33:29.025Z,8.65
2023-05-08T09:35:57.857Z,8.65
2023-05-08T09:38:32.745Z,8.10
2023-05-08T09:41:06.571Z,11.82
2023-05-08T09:43:33.808Z,9.88
2023-05-08T09:46:06.218Z,12.52
2023-05-08T09:48:39.812Z,11.32
2023-05-08T09:51:08.467Z,14.38
2023-05-08T09:53:35.667Z,13.70
2023-05-08T09:56:02.888Z,9.95
2023-05-08T09:58:38.333Z,10.02
2023-05-08T10:01:05.599Z,14.80
2023-05-08T10:03:46.786Z,9.65
2023-05-08T10:06:15.636Z,10.75
2023-05-08T10:08:42.889Z,13.55
2023-05-08T10:11:16.522Z,8.70
2023-05-08T10:13:44.010Z,10.32
2023-05-08T10:16:11.957Z,12.93
2023-05-08T10:18:39.306Z,13.07
2023-05-08T10:21:07.347Z,11.63
2023-05-08T10:23:36.043Z,9.02
2023-05-08T10:26:05.088Z,12.27
2023-05-08T10:28:33.095Z,10.88
2023-05-08T10:31:00.577Z,10.93
2023-05-08T10:33:31.201Z,10.70
2023-05-08T10:35:58.763Z,11.90
2023-05-08T10:38:25.995Z,11.65
2023-05-08T10:40:57.882Z,11.48
2023-05-08T10:43:25.218Z,7.20
2023-05-08T10:45:53.045Z,8.15
2023-05-08T10:48:22.199Z,9.18
2023-05-08T10:50:52.297Z,11.27
2023-05-08T10:55:46.951Z,25.95
2023-05-08T10:58:15.948Z,10.32
2023-05-08T11:01:03.955Z,12.30
2023-05-08T11:03:33.013Z,13.07
2023-05-08T11:06:00.713Z,27.98
2023-05-08T11:08:28.184Z,19.75
2023-05-08T11:11:01.789Z,18.55
2023-05-08T11:13:31.206Z,16.45
2023-05-08T11:15:58.451Z,12.50
2023-05-08T11:18:28.124Z,16.33
2023-05-08T11:21:00.494Z,14.85
2023-05-08T11:23:27.984Z,17.42
2023-05-08T11:25:59.944Z,17.80
2023-05-08T11:28:27.178Z,21.95
2023-05-08T11:30:56.284Z,17.92
2023-05-08T11:33:23.562Z,17.23
2023-05-08T11:35:54.643Z,15.48
2023-05-08T11:38:26.128Z,18.77
2023-05-08T11:41:00.196Z,20.98
2023-05-08T11:43:27.956Z,18.23
2023-05-08T11:45:56.477Z,15.27
2023-05-08T11:50:44.349Z,14.32
2023-05-08T11:53:11.535Z,15.13
2023-05-08T11:55:38.743Z,10.15
2023-05-08T11:58:12.148Z,14.82
2023-05-08T12:00:41.383Z,11.55
2023-05-08T12:03:10.036Z,11.63
2023-05-08T12:05:37.625Z,12.52
2023-05-08T12:08:06.136Z,13.25
2023-05-08T12:10:33.410Z,12.05
2023-05-08T12:13:00.619Z,10.95
2023-05-08T12:15:27.993Z,10.18
2023-05-08T12:18:01.700Z,11.00
2023-05-08T12:20:32.049Z,11.25
2023-05-08T12:23:00.470Z,10.68
2023-05-08T12:25:27.730Z,10.18
2023-05-08T12:27:55.044Z,9.60
2023-05-08T12:30:22.237Z,9.10
2023-05-08T12:32:49.549Z,10.75
2023-05-08T12:35:16.842Z,13.18
2023-05-08T12:37:45.473Z,11.02
2023-05-08T12:40:23.561Z,9.73
2023-05-08T12:42:50.884Z,10.98
2023-05-08T12:45:18.622Z,7.93
2023-05-08T12:47:46.627Z,9.23
2023-05-08T12:50:15.348Z,12.35
2023-05-08T12:52:42.809Z,6.57
2023-05-08T12:55:26.650Z,8.55
2023-05-08T12:57:59.650Z,6.70
2023-05-08T13:00:26.940Z,6.22
2023-05-08T13:02:54.407Z,6.07
2023-05-08T13:05:22.057Z,6.53
2023-05-08T13:07:49.473Z,6.82
2023-05-08T13:10:19.646Z,7.50
2023-05-08T13:12:49.782Z,6.68
2023-05-08T13:15:17.183Z,6.43
2023-05-08T13:17:44.405Z,9.43
2023-05-08T13:20:12.202Z,6.35
2023-05-08T13:22:39.511Z,7.95
2023-05-08T13:25:07.347Z,6.43
2023-05-08T13:27:34.562Z,5.80
2023-05-08T13:30:03.077Z,6.97
2023-05-08T13:32:30.312Z,6.13
2023-05-08T13:34:59.523Z,6.18
2023-05-08T13:37:28.210Z,6.40
2023-05-08T13:39:55.408Z,6.07
2023-05-08T13:42:22.631Z,5.70
2023-05-08T13:44:49.841Z,6.32
2023-05-08T13:47:18.362Z,6.80
2023-05-08T13:49:46.871Z,6.47
2023-05-08T13:52:14.091Z,7.65
2023-05-08T13:54:41.293Z,7.05
2023-05-08T13:57:08.962Z,5.50
2023-05-08T13:59:36.195Z,5.90
2023-05-08T14:02:03.461Z,7.10
2023-05-08T14:04:32.130Z,5.63
2023-05-08T14:06:59.357Z,5.53
2023-05-08T14:09:26.627Z,5.40
2023-05-08T14:11:53.824Z,5.75
2023-05-08T14:14:21.012Z,5.78
2023-05-08T14:16:48.187Z,6.15
2023-05-08T14:19:15.387Z,6.07
2023-05-08T14:21:43.907Z,5.13
2023-05-08T14:24:11.473Z,5.30
2023-05-08T14:26:39.630Z,7.38
2023-05-08T14:29:06.891Z,5.47
2023-05-08T14:31:34.134Z,5.57
2023-05-08T14:34:01.388Z,6.10
2023-05-08T14:36:28.589Z,5.43
2023-05-08T14:38:57.091Z,5.72
2023-05-08T14:41:27.947Z,5.18
2023-05-08T14:43:55.182Z,5.15
2023-05-08T14:46:22.400Z,6.38
2023-05-08T14:48:49.733Z,6.50
2023-05-08T14:51:19.113Z,5.43
2023-05-08T14:53:46.360Z,5.03
2023-05-08T14:56:15.143Z,5.40
2023-05-08T14:58:42.477Z,5.82
2023-05-08T15:01:09.665Z,5.22
2023-05-08T15:03:37.145Z,5.05
2023-05-08T15:06:04.940Z,4.90
2023-05-08T15:08:32.150Z,4.88
2023-05-08T15:10:59.494Z,4.85
2023-05-08T15:13:28.121Z,4.97
2023-05-08T15:15:55.427Z,4.85
2023-05-08T15:18:24.423Z,4.85
2023-05-08T15:20:51.620Z,5.60
2023-05-08T15:23:20.269Z,4.90
2023-05-08T15:25:47.473Z,5.38
2023-05-08T15:28:14.670Z,5.38
2023-05-08T15:30:43.233Z,4.97
2023-05-08T15:33:10.519Z,4.40
2023-05-08T15:35:37.868Z,4.70
2023-05-08T15:38:07.088Z,5.05
2023-05-08T15:40:34.311Z,5.40
2023-05-08T15:43:01.508Z,4.75
2023-05-08T15:45:28.757Z,4.53
2023-05-08T15:47:57.335Z,5.30
2023-05-08T15:50:24.547Z,5.13
2023-05-08T15:52:51.761Z,5.10
2023-05-08T15:55:19.435Z,4.50
2023-05-08T15:57:47.769Z,5.13
2023-05-08T16:00:15.385Z,4.50
2023-05-08T16:02:42.700Z,5.45
2023-05-08T16:05:11.878Z,4.97
2023-05-08T16:07:39.249Z,5.20
2023-05-08T16:10:07.493Z,5.15
2023-05-08T16:12:34.891Z,5.25
2023-05-08T16:15:02.118Z,4.68
2023-05-08T16:17:29.374Z,5.22
2023-05-08T16:19:56.585Z,5.30
2023-05-08T16:22:25.118Z,4.85
2023-05-08T16:24:53.337Z,5.10
2023-05-08T16:27:20.627Z,4.95
2023-05-08T16:29:47.930Z,5.32
2023-05-08T16:32:16.188Z,4.95
2023-05-08T16:34:43.899Z,4.70
2023-05-08T16:37:11.091Z,5.20
2023-05-08T16:39:39.607Z,4.78
2023-05-08T16:42:07.382Z,5.05
2023-05-08T16:44:35.833Z,4.50
2023-05-08T16:47:03.173Z,4.63
2023-05-08T16:49:30.435Z,4.53
2023-05-08T16:51:57.862Z,4.88
2023-05-08T16:54:25.078Z,5.40
2023-05-08T16:56:53.583Z,5.10
2023-05-08T16:59:20.824Z,4.72
2023-05-08T17:01:48.118Z,4.75
2023-05-08T17:04:15.320Z,4.35
2023-05-08T17:06:42.541Z,4.60
2023-05-08T17:09:09.751Z,4.35
2023-05-08T17:11:36.977Z,4.72
2023-05-08T17:14:05.469Z,5.07
2023-05-08T17:16:32.721Z,4.40
2023-05-08T17:19:00.520Z,4.22
2023-05-08T17:21:27.763Z,4.53
2023-05-08T17:23:54.983Z,4.82
2023-05-08T17:26:22.836Z,4.65
2023-05-08T17:28:50.034Z,4.63
2023-05-08T17:31:18.566Z,4.20
2023-05-08T17:33:45.793Z,4.60
2023-05-08T17:36:13.040Z,4.70
2023-05-08T17:38:45.519Z,4.47
2023-05-08T17:41:12.734Z,4.70
2023-05-08T17:43:40.435Z,4.80
2023-05-08T17:46:07.872Z,4.47
2023-05-08T17:48:36.429Z,4.35
2023-05-08T17:51:03.649Z,4.60
2023-05-08T17:53:30.934Z,4.53
2023-05-08T17:55:58.182Z,4.60
2023-05-08T17:58:25.466Z,4.30
2023-05-08T18:00:53.824Z,4.15
2023-05-08T18:03:21.223Z,4.43
2023-05-08T18:05:49.820Z,5.28
2023-05-08T18:08:17.131Z,5.05
2023-05-08T18:10:44.329Z,4.78
2023-05-08T18:13:11.560Z,5.10
2023-05-08T18:15:40.494Z,4.88
2023-05-08T18:18:07.888Z,4.90
2023-05-08T18:20:35.158Z,4.63
2023-05-08T18:23:03.686Z,4.88
2023-05-08T18:25:30.940Z,4.45
2023-05-08T18:27:58.843Z,5.32
2023-05-08T18:30:26.051Z,5.00
2023-05-08T18:32:54.043Z,4.90
2023-05-08T18:35:21.525Z,5.00
2023-05-08T18:37:48.756Z,4.68
2023-05-08T18:40:17.339Z,5.03
2023-05-08T18:42:44.559Z,4.85
2023-05-08T18:45:12.237Z,5.35
2023-05-08T18:47:39.480Z,4.60
2023-05-08T18:50:07.160Z,4.95
2023-05-08T18:52:34.510Z,4.55
2023-05-08T18:55:01.742Z,4.68
2023-05-08T18:57:30.326Z,4.63
2023-05-08T18:59:57.536Z,5.05
2023-05-08T19:02:27.723Z,5.40
2023-05-08T19:04:55.688Z,5.20
2023-05-08T19:07:22.878Z,5.25
2023-05-08T19:09:50.077Z,5.28
2023-05-08T19:12:17.285Z,5.03
2023-05-08T19:14:45.828Z,5.50
2023-05-08T19:17:13.017Z,5.32
2023-05-08T19:19:40.201Z,4.82
2023-05-08T19:22:07.424Z,5.40
2023-05-08T19:24:34.759Z,5.00
2023-05-08T19:27:01.968Z,4.88
2023-05-08T19:29:29.178Z,5.40
2023-05-08T19:31:57.730Z,5.32
2023-05-08T19:34:25.035Z,5.97
2023-05-08T19:36:52.339Z,5.25
2023-05-08T19:39:19.517Z,4.93
2023-05-08T19:41:46.726Z,4.95
2023-05-08T19:44:13.947Z,4.90
2023-05-08T19:46:41.333Z,5.38
2023-05-08T19:49:09.924Z,5.15
2023-05-08T19:51:37.141Z,5.28
2023-05-08T19:54:04.517Z,5.10
2023-05-08T19:56:31.723Z,5.20
2023-05-08T19:58:58.918Z,5.03
2023-05-08T20:01:26.237Z,5.35
2023-05-08T20:03:53.552Z,4.88
2023-05-08T20:06:22.178Z,5.35
2023-05-08T20:08:49.401Z,5.03
2023-05-08T20:11:16.579Z,4.93
2023-05-08T20:13:44.059Z,5.00
2023-05-08T20:16:11.349Z,5.72
2023-05-08T20:18:38.618Z,5.30
2023-05-08T20:21:05.848Z,5.35
2023-05-08T20:23:34.387Z,5.07
2023-05-08T20:26:01.732Z,5.00
2023-05-08T20:28:28.943Z,5.45
2023-05-08T20:30:56.177Z,5.72
2023-05-08T20:33:23.431Z,5.57
2023-05-08T20:35:50.639Z,5.38
2023-05-08T20:38:17.864Z,5.03
2023-05-08T20:40:46.372Z,5.40
2023-05-08T20:43:16.546Z,5.43
2023-05-08T20:45:43.755Z,4.90
2023-05-08T20:48:10.949Z,5.35
2023-05-08T20:50:38.155Z,5.43
2023-05-08T20:53:05.469Z,5.55
2023-05-08T20:55:32.707Z,5.25
2023-05-08T20:58:01.805Z,5.55
2023-05-08T21:00:29.096Z,5.22
2023-05-08T21:02:56.419Z,5.35
2023-05-08T21:05:23.645Z,5.63
2023-05-08T21:07:50.843Z,5.38
2023-05-08T21:10:18.831Z,5.10
2023-05-08T21:12:46.083Z,5.13
2023-05-08T21:15:14.741Z,5.32
2023-05-08T21:17:42.198Z,5.72
2023-05-08T21:20:09.751Z,5.07
2023-05-08T21:22:36.983Z,5.28
2023-05-08T21:25:04.519Z,5.63
2023-05-08T21:27:31.762Z,5.32
2023-05-08T21:29:58.966Z,5.45
2023-05-08T21:32:27.516Z,5.03
2023-05-08T21:34:55.976Z,5.50
2023-05-08T21:37:23.501Z,5.18
2023-05-08T21:39:50.695Z,5.30
2023-05-08T21:42:17.897Z,5.22
2023-05-08T21:44:45.075Z,5.18
2023-05-08T21:47:12.273Z,4.80
2023-05-08T21:49:40.773Z,4.97
2023-05-08T21:52:07.965Z,5.15
2023-05-08T21:54:35.176Z,5.35
2023-05-08T21:57:02.407Z,5.05
2023-05-08T21:59:29.602Z,5.05
2023-05-08T22:01:56.830Z,4.97
2023-05-08T22:04:24.056Z,4.97
2023-05-08T22:06:52.577Z,5.00
2023-05-08T22:09:19.771Z,4.90
2023-05-08T22:11:46.958Z,5.00
2023-05-08T22:14:14.141Z,5.60
2023-05-08T22:16:42.352Z,5.13
2023-05-08T22:19:09.725Z,5.38
2023-05-08T22:21:36.915Z,5.38
2023-05-08T22:24:05.834Z,5.00
2023-05-08T22:26:33.034Z,4.95
2023-05-08T22:29:00.449Z,5.20
2023-05-08T22:31:27.695Z,5.30
2023-05-08T22:33:54.893Z,4.97
2023-05-08T22:36:23.735Z,5.10
2023-05-08T22:38:50.958Z,6.32
2023-05-08T22:41:19.528Z,4.50
2023-05-08T22:43:46.826Z,5.10
2023-05-08T22:46:14.165Z,5.57
2023-05-08T22:48:41.482Z,4.78
2023-05-08T22:51:08.756Z,4.95
2023-05-08T22:53:36.128Z,5.57
2023-05-08T22:56:03.359Z,5.50
2023-05-08T22:58:31.874Z,5.10
2023-05-08T23:00:59.537Z,5.68
2023-05-08T23:03:26.908Z,5.30
2023-05-08T23:05:54.125Z,4.80
2023-05-08T23:08:22.416Z,4.80
2023-05-08T23:10:49.697Z,5.25
2023-05-08T23:13:16.919Z,5.28
2023-05-08T23:15:45.463Z,5.68
2023-05-08T23:18:12.880Z,5.20
2023-05-08T23:20:40.144Z,5.18
2023-05-08T23:23:07.713Z,4.70
2023-05-08T23:25:34.941Z,6.00
2023-05-08T23:28:02.142Z,4.90
2023-05-08T23:30:29.411Z,5.18
2023-05-08T23:32:57.985Z,4.88
2023-05-08T23:35:25.279Z,5.15
2023-05-08T23:37:52.686Z,4.95
2023-05-08T23:40:19.897Z,5.70
2023-05-08T23:42:47.112Z,5.35
2023-05-08T23:45:14.481Z,5.18
2023-05-08T23:47:41.922Z,4.78
2023-05-08T23:50:11.136Z,4.57
2023-05-08T23:52:38.332Z,5.37
2023-05-08T23:55:06.334Z,5.03
2023-05-08T23:57:33.561Z,4.85
